KLOU/LOU METAR and TAF weather

Enter ICAO airport designator
Station Type Date Time Source
KLOU METAR 2019/05/26 00:53 UTC NOAA

KLOU 260053Z 20008KT 10SM CLR 28/18 A3005 RMK AO2 SLP170 T02830178


Station Type Date Time Source
KLOU Decoded METAR 2019/05/26 00:53 UTC NOAA

BOWMAN FIELD, KY, United States (KLOU) 38-14N 085-40W 164M
May 25, 2019 - 08:53 PM EDT / 2019.05.26 0053 UTC
Wind: from the SSW (200 degrees) at 9 MPH (8 KT):0
Visibility: 10 mile(s):0
Sky conditions: clear
Temperature: 82.9 F (28.3 C)
Dew Point: 64.0 F (17.8 C)
Relative Humidity: 52%
Pressure (altimeter): 30.05 in. Hg (1017 hPa)
ob: KLOU 260053Z 20008KT 10SM CLR 28/18 A3005 RMK AO2 SLP170 T02830178
cycle: 1

Station Type Date Time Source
KLOU TAF UTC NOAA

Error!

Example: see airport list